createdAt,value
2023-09-17T00:01:22.088Z,136.40
2023-09-17T00:03:49.640Z,134.27
2023-09-17T00:06:16.845Z,131.90
2023-09-17T00:08:43.776Z,132.30
2023-09-17T00:11:11.132Z,133.32
2023-09-17T00:13:39.625Z,132.75
2023-09-17T00:16:07.044Z,133.73
2023-09-17T00:18:35.487Z,132.15
2023-09-17T00:21:02.373Z,131.88
2023-09-17T00:23:29.351Z,132.77
2023-09-17T00:25:56.388Z,131.45
2023-09-17T00:28:23.715Z,131.27
2023-09-17T00:30:50.827Z,131.95
2023-09-17T00:33:17.757Z,128.70
2023-09-17T00:35:46.238Z,127.05
2023-09-17T00:38:13.118Z,128.77
2023-09-17T00:40:41.451Z,126.63
2023-09-17T00:43:09.641Z,127.25
2023-09-17T00:45:36.895Z,129.80
2023-09-17T00:48:05.068Z,128.45
2023-09-17T00:50:32.497Z,126.35
2023-09-17T00:53:01.781Z,128.48
2023-09-17T00:55:30.992Z,129.98
2023-09-17T00:58:00.185Z,128.57
2023-09-17T01:00:27.978Z,128.85
2023-09-17T01:02:56.098Z,128.52
2023-09-17T01:05:23.768Z,128.70
2023-09-17T01:07:51.201Z,130.00
2023-09-17T01:10:22.761Z,129.40
2023-09-17T01:15:17.011Z,129.13
2023-09-17T01:17:44.030Z,131.75
2023-09-17T01:20:27.006Z,131.48
2023-09-17T01:23:00.347Z,129.63
2023-09-17T01:25:41.972Z,130.63
2023-09-17T01:28:13.504Z,131.15
2023-09-17T01:30:43.777Z,131.95
2023-09-17T01:33:11.113Z,131.50
2023-09-17T01:35:49.150Z,133.38
2023-09-17T01:38:19.933Z,131.15
2023-09-17T01:40:49.763Z,132.57
2023-09-17T01:43:19.511Z,134.63
2023-09-17T01:45:47.610Z,135.35
2023-09-17T01:48:16.645Z,135.82
2023-09-17T01:50:43.839Z,135.05
2023-09-17T01:53:13.061Z,136.88
2023-09-17T01:55:42.986Z,132.70
2023-09-17T01:58:12.668Z,133.00
2023-09-17T02:00:41.046Z,134.75
2023-09-17T02:03:09.516Z,134.25
2023-09-17T02:05:36.702Z,134.35
2023-09-17T02:08:05.057Z,133.77
2023-09-17T02:10:32.372Z,134.27
2023-09-17T02:12:59.565Z,135.48
2023-09-17T02:15:26.844Z,135.68
2023-09-17T02:17:55.140Z,136.35
2023-09-17T02:20:22.202Z,138.05
2023-09-17T02:22:51.061Z,137.93
2023-09-17T02:25:18.896Z,136.80
2023-09-17T02:27:47.590Z,137.32
2023-09-17T02:30:14.609Z,138.15
2023-09-17T02:32:42.940Z,140.30
2023-09-17T02:35:11.282Z,140.55
2023-09-17T02:37:39.564Z,137.38
2023-09-17T02:40:10.255Z,138.02
2023-09-17T02:42:38.242Z,142.55
2023-09-17T02:45:07.227Z,139.75
2023-09-17T02:47:37.142Z,140.18
2023-09-17T02:50:06.132Z,140.77
2023-09-17T02:52:35.594Z,141.85
2023-09-17T02:55:05.853Z,140.63
2023-09-17T02:57:32.968Z,142.68
2023-09-17T03:00:00.968Z,142.45
2023-09-17T03:02:29.560Z,139.10
2023-09-17T03:04:59.626Z,138.18
2023-09-17T03:07:27.645Z,136.30
2023-09-17T03:10:01.299Z,137.15
2023-09-17T03:12:29.592Z,135.40
2023-09-17T03:14:56.698Z,134.93
2023-09-17T03:17:23.845Z,135.05
2023-09-17T03:19:52.614Z,135.07
2023-09-17T03:22:19.582Z,136.75
2023-09-17T03:24:58.017Z,134.73
2023-09-17T03:27:33.742Z,136.68
2023-09-17T03:30:00.756Z,135.40
2023-09-17T03:32:28.491Z,139.32
2023-09-17T03:34:56.999Z,136.55
2023-09-17T03:37:24.021Z,135.35
2023-09-17T03:40:15.620Z,138.13
2023-09-17T03:42:47.598Z,137.35
2023-09-17T03:45:15.170Z,137.20
2023-09-17T03:47:43.792Z,139.40
2023-09-17T03:50:16.314Z,143.13
2023-09-17T03:52:48.829Z,142.15
2023-09-17T03:55:16.778Z,142.55
2023-09-17T03:57:46.057Z,138.20
2023-09-17T04:00:16.977Z,138.35
2023-09-17T04:02:46.456Z,139.77
2023-09-17T04:05:15.306Z,140.70
2023-09-17T04:07:45.445Z,139.85
2023-09-17T04:10:13.425Z,142.77
2023-09-17T04:12:41.969Z,141.55
2023-09-17T04:15:21.384Z,136.45
2023-09-17T04:17:51.420Z,135.98
2023-09-17T04:20:20.122Z,136.20
2023-09-17T04:22:51.136Z,136.02
2023-09-17T04:25:19.971Z,134.98
2023-09-17T04:27:49.759Z,135.32
2023-09-17T04:32:49.586Z,137.88
2023-09-17T04:35:18.581Z,139.50
2023-09-17T04:37:48.630Z,138.88
2023-09-17T04:40:15.941Z,140.02
2023-09-17T04:42:45.080Z,141.05
2023-09-17T04:45:31.685Z,140.23
2023-09-17T04:48:00.198Z,144.05
2023-09-17T04:50:28.716Z,141.30
2023-09-17T04:52:56.699Z,143.38
2023-09-17T04:55:24.422Z,140.52
2023-09-17T04:57:52.566Z,142.10
2023-09-17T05:00:21.420Z,139.88
2023-09-17T05:02:49.392Z,141.60
2023-09-17T05:05:21.063Z,141.30
2023-09-17T05:07:50.007Z,143.02
2023-09-17T05:10:18.069Z,139.85
2023-09-17T05:12:45.740Z,138.90
2023-09-17T05:15:13.392Z,142.00
2023-09-17T05:17:41.223Z,143.43
2023-09-17T05:20:09.964Z,141.00
2023-09-17T05:22:38.361Z,144.07
2023-09-17T05:25:09.433Z,141.88
2023-09-17T05:27:36.926Z,143.00
2023-09-17T05:30:05.142Z,143.27
2023-09-17T05:32:32.423Z,142.95
2023-09-17T05:35:01.076Z,142.32
2023-09-17T05:37:28.282Z,144.35
2023-09-17T05:39:56.741Z,142.80
2023-09-17T05:42:23.686Z,145.85
2023-09-17T05:44:50.621Z,143.82
2023-09-17T05:47:19.019Z,141.95
2023-09-17T05:49:46.046Z,144.55
2023-09-17T05:52:13.274Z,145.73
2023-09-17T05:54:40.598Z,142.43
2023-09-17T05:57:08.982Z,142.35
2023-09-17T05:59:36.438Z,143.30
2023-09-17T06:02:03.897Z,142.73
2023-09-17T06:04:31.085Z,142.75
2023-09-17T06:06:58.230Z,141.65
2023-09-17T06:09:25.146Z,142.75
2023-09-17T06:11:52.444Z,143.45
2023-09-17T06:14:20.909Z,144.60
2023-09-17T06:16:57.530Z,146.18
2023-09-17T06:19:27.095Z,143.75
2023-09-17T06:21:55.216Z,144.77
2023-09-17T06:24:22.464Z,145.15
2023-09-17T06:26:49.579Z,144.38
2023-09-17T06:29:17.161Z,145.20
2023-09-17T06:31:46.913Z,146.20
2023-09-17T06:34:14.190Z,145.32
2023-09-17T06:36:41.166Z,142.93
2023-09-17T06:39:08.839Z,146.48
2023-09-17T06:41:38.064Z,146.18
2023-09-17T06:44:07.024Z,148.02
2023-09-17T06:46:34.458Z,148.02
2023-09-17T06:49:03.084Z,148.18
2023-09-17T06:51:29.962Z,147.88
2023-09-17T06:53:57.144Z,149.18
2023-09-17T06:56:26.858Z,148.85
2023-09-17T06:58:53.787Z,148.52
2023-09-17T07:01:20.815Z,149.27
2023-09-17T07:03:51.434Z,145.07
2023-09-17T07:06:20.173Z,145.77
2023-09-17T07:08:47.778Z,148.90
2023-09-17T07:11:14.904Z,149.63
2023-09-17T07:13:41.935Z,143.32
2023-09-17T07:16:09.229Z,140.65
2023-09-17T07:18:36.258Z,137.00
2023-09-17T07:21:05.349Z,137.43
2023-09-17T07:23:33.979Z,136.82
2023-09-17T07:26:01.698Z,134.43
2023-09-17T07:28:30.441Z,137.60
2023-09-17T07:30:58.458Z,134.93
2023-09-17T07:33:25.782Z,135.82
2023-09-17T07:35:53.876Z,134.95
2023-09-17T07:38:20.924Z,137.32
2023-09-17T07:40:49.544Z,138.70
2023-09-17T07:43:16.672Z,137.82
2023-09-17T07:45:43.793Z,138.60
2023-09-17T07:48:10.944Z,137.85
2023-09-17T07:50:37.833Z,137.63
2023-09-17T07:53:05.381Z,137.55
2023-09-17T07:55:32.494Z,137.73
2023-09-17T07:58:00.874Z,137.68
2023-09-17T08:00:28.139Z,140.18
2023-09-17T08:02:55.151Z,138.35
2023-09-17T08:05:22.250Z,136.77
2023-09-17T08:07:49.762Z,138.98
2023-09-17T08:10:16.817Z,138.00
2023-09-17T08:12:43.744Z,136.85
2023-09-17T08:15:12.374Z,137.13
2023-09-17T08:17:39.341Z,137.20
2023-09-17T08:20:10.944Z,139.13
2023-09-17T08:22:38.926Z,137.30
2023-09-17T08:25:07.679Z,138.10
2023-09-17T08:27:34.576Z,137.20
2023-09-17T08:30:08.060Z,138.30
2023-09-17T08:32:36.347Z,137.55
2023-09-17T08:35:04.280Z,137.15
2023-09-17T08:37:31.319Z,137.38
2023-09-17T08:39:58.331Z,138.57
2023-09-17T08:42:27.739Z,137.88
2023-09-17T08:44:58.160Z,137.80
2023-09-17T08:47:25.366Z,137.02
2023-09-17T08:49:53.703Z,138.07
2023-09-17T08:52:22.032Z,138.98
2023-09-17T08:54:50.734Z,140.05
2023-09-17T08:57:22.946Z,138.40
2023-09-17T08:59:58.501Z,141.95
2023-09-17T09:02:30.609Z,135.95
2023-09-17T09:05:01.456Z,136.35
2023-09-17T09:07:29.765Z,139.13
2023-09-17T09:09:58.096Z,135.55
2023-09-17T09:12:25.723Z,138.55
2023-09-17T09:14:54.674Z,135.25
2023-09-17T09:17:21.672Z,135.85
2023-09-17T09:19:48.980Z,138.38
2023-09-17T09:22:17.274Z,138.95
2023-09-17T09:24:47.590Z,137.50
2023-09-17T09:27:15.311Z,136.98
2023-09-17T09:29:45.340Z,137.90
2023-09-17T09:32:13.210Z,138.10
2023-09-17T09:34:42.167Z,137.15
2023-09-17T09:37:10.078Z,136.95
2023-09-17T09:39:39.392Z,135.77
2023-09-17T09:42:07.631Z,136.30
2023-09-17T09:44:36.235Z,133.82
2023-09-17T09:47:03.947Z,134.50
2023-09-17T09:49:40.368Z,136.98
2023-09-17T09:52:07.339Z,134.85
2023-09-17T09:54:34.279Z,135.77
2023-09-17T09:57:03.176Z,136.55
2023-09-17T09:59:30.662Z,137.60
2023-09-17T10:01:57.852Z,137.25
2023-09-17T10:04:25.036Z,136.65
2023-09-17T10:06:52.232Z,138.05
2023-09-17T10:09:19.728Z,135.80
2023-09-17T10:11:47.649Z,137.35
2023-09-17T10:14:16.157Z,137.82
2023-09-17T10:16:44.632Z,141.90
2023-09-17T10:19:19.192Z,142.52
2023-09-17T10:21:47.903Z,137.75
2023-09-17T10:24:16.738Z,138.20
2023-09-17T10:26:44.824Z,139.77
2023-09-17T10:29:13.258Z,136.50
2023-09-17T10:31:43.563Z,139.57
2023-09-17T10:34:14.176Z,136.48
2023-09-17T10:36:43.518Z,135.85
2023-09-17T10:39:11.981Z,137.43
2023-09-17T10:41:39.501Z,132.60
2023-09-17T10:44:08.493Z,132.98
2023-09-17T10:46:37.821Z,134.82
2023-09-17T10:49:08.625Z,130.32
2023-09-17T10:51:37.010Z,129.00
2023-09-17T10:54:05.186Z,127.80
2023-09-17T10:56:33.195Z,129.45
2023-09-17T10:59:01.045Z,128.65
2023-09-17T11:01:31.134Z,124.80
2023-09-17T11:04:03.944Z,124.88
2023-09-17T11:06:35.990Z,125.13
2023-09-17T11:09:05.916Z,126.65
2023-09-17T11:11:35.980Z,124.78
2023-09-17T11:14:06.774Z,125.32
2023-09-17T11:16:37.295Z,126.00
2023-09-17T11:19:06.802Z,125.05
2023-09-17T11:21:39.315Z,127.50
2023-09-17T11:24:11.139Z,128.60
2023-09-17T11:26:40.279Z,126.63
2023-09-17T11:29:08.664Z,124.70
2023-09-17T11:31:37.331Z,126.45
2023-09-17T11:34:11.636Z,126.93
2023-09-17T11:36:39.974Z,124.82
2023-09-17T11:39:08.428Z,126.75
2023-09-17T11:41:41.706Z,127.90
2023-09-17T11:44:10.134Z,127.15
2023-09-17T11:46:38.554Z,126.57
2023-09-17T11:49:09.393Z,128.15
2023-09-17T11:51:46.476Z,124.35
2023-09-17T11:54:17.755Z,125.95
2023-09-17T11:56:47.916Z,126.25
2023-09-17T11:59:18.030Z,123.50
2023-09-17T12:01:48.582Z,122.72
2023-09-17T12:04:20.902Z,127.90
2023-09-17T12:06:50.396Z,126.00
2023-09-17T12:09:22.712Z,125.43
2023-09-17T12:11:51.551Z,126.80
2023-09-17T12:14:20.674Z,124.78
2023-09-17T12:16:49.428Z,126.57
2023-09-17T12:19:18.779Z,123.47
2023-09-17T12:21:49.063Z,126.00
2023-09-17T12:24:27.362Z,125.45
2023-09-17T12:27:20.633Z,123.82
2023-09-17T12:29:52.867Z,124.60
2023-09-17T12:32:23.178Z,125.78
2023-09-17T12:34:51.636Z,125.65
2023-09-17T12:37:18.627Z,124.03
2023-09-17T12:39:51.112Z,124.88
2023-09-17T12:42:18.637Z,127.05
2023-09-17T12:44:45.728Z,125.00
2023-09-17T12:47:13.299Z,122.05
2023-09-17T12:49:41.703Z,126.47
2023-09-17T12:52:08.923Z,122.97
2023-09-17T12:54:36.289Z,124.68
2023-09-17T12:57:05.641Z,123.78
2023-09-17T12:59:33.907Z,125.00
2023-09-17T13:02:04.750Z,124.80
2023-09-17T13:04:36.392Z,123.85
2023-09-17T13:07:05.304Z,122.85
2023-09-17T13:09:33.134Z,123.55
2023-09-17T13:12:02.231Z,122.32
2023-09-17T13:14:32.601Z,120.97
2023-09-17T13:17:00.124Z,122.40
2023-09-17T13:19:27.442Z,121.47
2023-09-17T13:21:54.850Z,125.53
2023-09-17T13:24:22.013Z,122.78
2023-09-17T13:26:48.988Z,122.20
2023-09-17T13:29:16.032Z,125.47
2023-09-17T13:31:51.256Z,121.55
2023-09-17T13:34:20.866Z,122.95
2023-09-17T13:36:48.586Z,122.53
2023-09-17T13:39:15.830Z,123.63
2023-09-17T13:41:44.036Z,125.30
2023-09-17T13:44:11.261Z,125.28
2023-09-17T13:46:45.816Z,124.40
2023-09-17T13:49:14.379Z,124.82
2023-09-17T13:51:41.370Z,123.47
2023-09-17T13:54:08.295Z,125.22
2023-09-17T13:56:36.788Z,124.90
2023-09-17T13:59:04.192Z,124.97
2023-09-17T14:01:32.046Z,124.15
2023-09-17T14:03:59.020Z,123.10
2023-09-17T14:06:27.269Z,124.43
2023-09-17T14:08:54.450Z,124.07
2023-09-17T14:11:25.338Z,124.43
2023-09-17T14:13:52.361Z,123.75
2023-09-17T14:16:21.324Z,122.43
2023-09-17T14:18:51.397Z,121.75
2023-09-17T14:21:20.476Z,121.50
2023-09-17T14:23:48.723Z,122.00
2023-09-17T14:26:15.775Z,122.40
2023-09-17T14:28:42.946Z,121.72
2023-09-17T14:31:09.904Z,125.07
2023-09-17T14:33:36.899Z,121.53
2023-09-17T14:36:04.340Z,123.95
2023-09-17T14:38:31.282Z,122.03
2023-09-17T14:40:59.721Z,121.60
2023-09-17T14:43:26.759Z,125.53
2023-09-17T14:45:53.754Z,122.15
2023-09-17T14:48:20.738Z,124.95
2023-09-17T14:50:50.222Z,121.10
2023-09-17T14:53:17.259Z,124.88
2023-09-17T14:55:47.546Z,123.78
2023-09-17T14:58:18.076Z,123.40
2023-09-17T15:00:45.402Z,121.50
2023-09-17T15:03:13.066Z,124.72
2023-09-17T15:05:40.824Z,125.20
2023-09-17T15:08:07.816Z,121.00
2023-09-17T15:10:34.817Z,120.90
2023-09-17T15:13:01.727Z,122.78
2023-09-17T15:15:31.009Z,126.43
2023-09-17T15:17:59.430Z,122.50
2023-09-17T15:20:26.833Z,122.60
2023-09-17T15:22:53.741Z,122.22
2023-09-17T15:25:20.742Z,120.97
2023-09-17T15:27:47.929Z,123.25
2023-09-17T15:30:15.032Z,127.43
2023-09-17T15:32:43.540Z,126.60
2023-09-17T15:35:18.063Z,123.63
2023-09-17T15:37:47.699Z,121.93
2023-09-17T15:40:15.216Z,123.05
2023-09-17T15:42:45.196Z,121.55
2023-09-17T15:45:12.210Z,120.63
2023-09-17T15:47:41.542Z,121.53
2023-09-17T15:50:12.761Z,123.32
2023-09-17T15:52:40.009Z,123.70
2023-09-17T15:55:07.753Z,120.57
2023-09-17T15:57:34.946Z,121.95
2023-09-17T16:00:01.927Z,123.65
2023-09-17T16:02:39.315Z,121.55
2023-09-17T16:05:06.884Z,122.10
2023-09-17T16:07:35.641Z,124.55
2023-09-17T16:10:02.613Z,122.82
2023-09-17T16:12:29.556Z,123.57
2023-09-17T16:14:56.516Z,123.57
2023-09-17T16:17:23.509Z,119.68
2023-09-17T16:19:58.461Z,123.55
2023-09-17T16:22:26.160Z,123.18
2023-09-17T16:24:54.792Z,124.20
2023-09-17T16:27:22.103Z,122.68
2023-09-17T16:29:49.131Z,121.88
2023-09-17T16:32:16.644Z,124.22
2023-09-17T16:34:43.907Z,123.00
2023-09-17T16:37:10.895Z,118.88
2023-09-17T16:39:38.349Z,121.05
2023-09-17T16:42:06.913Z,123.63
2023-09-17T16:44:33.876Z,127.22
2023-09-17T16:47:01.538Z,130.23
2023-09-17T16:49:28.507Z,120.65
2023-09-17T16:51:55.468Z,125.63
2023-09-17T16:54:22.506Z,122.72
2023-09-17T16:56:49.872Z,122.85
2023-09-17T16:59:18.403Z,121.60
2023-09-17T17:01:46.255Z,120.10
2023-09-17T17:04:14.088Z,120.68
2023-09-17T17:06:41.220Z,120.60
2023-09-17T17:09:09.287Z,120.32
2023-09-17T17:11:36.449Z,125.78
2023-09-17T17:14:03.494Z,120.22
2023-09-17T17:16:32.913Z,122.22
2023-09-17T17:19:00.042Z,123.60
2023-09-17T17:21:26.964Z,121.88
2023-09-17T17:23:54.135Z,123.43
2023-09-17T17:26:21.838Z,124.28
2023-09-17T17:28:48.964Z,125.60
2023-09-17T17:31:16.004Z,126.03
2023-09-17T17:33:45.444Z,126.85
2023-09-17T17:36:12.417Z,127.28
2023-09-17T17:38:39.328Z,133.43
2023-09-17T17:41:08.164Z,133.80
2023-09-17T17:43:38.109Z,126.65
2023-09-17T17:46:05.286Z,126.35
2023-09-17T17:48:33.052Z,130.85
2023-09-17T17:51:01.423Z,136.98
2023-09-17T17:53:28.400Z,131.70
2023-09-17T17:55:55.598Z,135.88
2023-09-17T17:58:22.504Z,141.02
2023-09-17T18:00:50.289Z,147.02
2023-09-17T18:03:18.284Z,147.82
2023-09-17T18:05:45.410Z,145.23
2023-09-17T18:08:14.081Z,151.77
2023-09-17T18:10:41.143Z,148.23
2023-09-17T18:13:08.070Z,154.70
2023-09-17T18:15:36.920Z,154.25
2023-09-17T18:18:04.083Z,153.82
2023-09-17T18:20:31.694Z,158.82
2023-09-17T18:22:58.775Z,148.98
2023-09-17T18:25:27.281Z,149.48
2023-09-17T18:27:54.330Z,152.73
2023-09-17T18:30:21.230Z,148.23
2023-09-17T18:32:48.384Z,155.38
2023-09-17T18:35:15.341Z,155.52
2023-09-17T18:37:42.784Z,152.52
2023-09-17T18:40:10.526Z,151.30
2023-09-17T18:42:38.883Z,152.77
2023-09-17T18:45:09.670Z,149.82
2023-09-17T18:47:38.153Z,148.35
2023-09-17T18:50:06.876Z,151.70
2023-09-17T18:52:33.981Z,151.38
2023-09-17T18:55:02.478Z,146.95
2023-09-17T18:57:29.528Z,149.52
2023-09-17T18:59:58.004Z,150.98
2023-09-17T19:02:25.170Z,150.55
2023-09-17T19:04:52.271Z,147.40
2023-09-17T19:07:19.315Z,145.95
2023-09-17T19:09:46.229Z,149.27
2023-09-17T19:12:13.250Z,149.00
2023-09-17T19:14:41.387Z,148.30
2023-09-17T19:17:09.881Z,155.32
2023-09-17T19:19:36.816Z,149.88
2023-09-17T19:22:10.388Z,153.40
2023-09-17T19:24:38.256Z,153.60
2023-09-17T19:27:06.068Z,152.55
2023-09-17T19:29:33.123Z,147.55
2023-09-17T19:32:00.212Z,151.55
2023-09-17T19:34:28.760Z,153.07
2023-09-17T19:36:56.934Z,156.45
2023-09-17T19:39:23.851Z,151.68
2023-09-17T19:41:50.815Z,149.95
2023-09-17T19:44:19.682Z,148.10
2023-09-17T19:46:47.975Z,153.30
2023-09-17T19:49:14.911Z,148.60
2023-09-17T19:51:43.196Z,151.20
2023-09-17T19:54:11.157Z,151.68
2023-09-17T19:56:38.436Z,148.55
2023-09-17T19:59:06.172Z,149.27
2023-09-17T20:01:33.186Z,150.70
2023-09-17T20:04:00.986Z,152.45
2023-09-17T20:06:43.609Z,151.77
2023-09-17T20:09:22.662Z,145.55
2023-09-17T20:11:49.638Z,147.38
2023-09-17T20:14:19.050Z,148.23
2023-09-17T20:16:46.124Z,150.85
2023-09-17T20:19:13.143Z,150.50
2023-09-17T20:21:40.219Z,154.73
2023-09-17T20:24:07.820Z,149.85
2023-09-17T20:26:39.128Z,148.13
2023-09-17T20:31:33.167Z,146.43
2023-09-17T20:34:00.916Z,148.13
2023-09-17T20:36:28.112Z,152.07
2023-09-17T20:38:55.314Z,148.48
2023-09-17T20:41:24.162Z,154.15
2023-09-17T20:43:53.262Z,149.75
2023-09-17T20:46:20.168Z,147.02
2023-09-17T20:48:47.400Z,153.60
2023-09-17T20:51:14.324Z,148.63
2023-09-17T20:53:41.223Z,141.23
2023-09-17T20:56:08.237Z,143.82
2023-09-17T20:58:36.312Z,143.73
2023-09-17T21:01:05.258Z,141.07
2023-09-17T21:03:32.683Z,143.50
2023-09-17T21:05:59.774Z,142.55
2023-09-17T21:08:26.840Z,140.73
2023-09-17T21:10:54.036Z,141.45
2023-09-17T21:13:21.024Z,139.07
2023-09-17T21:15:48.240Z,136.32
2023-09-17T21:18:16.819Z,137.13
2023-09-17T21:20:43.815Z,138.73
2023-09-17T21:23:10.915Z,142.32
2023-09-17T21:25:38.222Z,144.07
2023-09-17T21:28:06.569Z,142.13
2023-09-17T21:30:34.328Z,139.95
2023-09-17T21:33:01.370Z,142.10
2023-09-17T21:35:30.318Z,136.85
2023-09-17T21:37:57.349Z,139.32
2023-09-17T21:40:24.286Z,140.38
2023-09-17T21:42:51.262Z,142.80
2023-09-17T21:45:19.875Z,140.00
2023-09-17T21:47:47.076Z,148.20
2023-09-17T21:50:14.106Z,140.68
2023-09-17T21:52:42.621Z,140.65
2023-09-17T21:55:09.919Z,143.85
2023-09-17T21:57:36.975Z,140.20
2023-09-17T22:00:04.692Z,139.85
2023-09-17T22:02:31.657Z,144.45
2023-09-17T22:04:58.816Z,144.05
2023-09-17T22:07:25.717Z,142.57
2023-09-17T22:09:54.180Z,142.00
2023-09-17T22:12:21.254Z,143.27
2023-09-17T22:14:48.360Z,144.90
2023-09-17T22:17:17.685Z,138.90
2023-09-17T22:19:51.842Z,138.75
2023-09-17T22:22:18.923Z,138.95
2023-09-17T22:24:45.918Z,135.68
2023-09-17T22:27:15.955Z,136.10
2023-09-17T22:29:43.160Z,132.98
2023-09-17T22:32:10.216Z,140.48
2023-09-17T22:34:37.251Z,138.10
2023-09-17T22:37:04.409Z,137.60
2023-09-17T22:39:31.311Z,139.00
2023-09-17T22:41:58.410Z,135.32
2023-09-17T22:44:26.783Z,133.38
2023-09-17T22:46:53.695Z,136.05
2023-09-17T22:49:20.762Z,135.48
2023-09-17T22:51:47.782Z,139.25
2023-09-17T22:54:14.696Z,135.70
2023-09-17T22:56:41.605Z,139.52
2023-09-17T22:59:10.106Z,139.18
2023-09-17T23:01:42.005Z,140.70
2023-09-17T23:04:09.110Z,139.93
2023-09-17T23:06:36.552Z,137.85
2023-09-17T23:09:05.085Z,137.43
2023-09-17T23:11:32.859Z,142.85
2023-09-17T23:14:00.355Z,139.27
2023-09-17T23:16:27.590Z,138.02
2023-09-17T23:18:56.875Z,140.85
2023-09-17T23:21:23.941Z,144.20
2023-09-17T23:23:54.248Z,140.02
2023-09-17T23:26:24.850Z,138.97
2023-09-17T23:28:52.239Z,137.45
2023-09-17T23:31:19.493Z,140.65
2023-09-17T23:33:46.501Z,138.02
2023-09-17T23:36:14.837Z,138.65
2023-09-17T23:38:41.783Z,153.90
2023-09-17T23:41:09.729Z,143.25
2023-09-17T23:43:38.853Z,141.40
2023-09-17T23:46:05.991Z,141.77
2023-09-17T23:48:32.930Z,140.23
2023-09-17T23:51:01.017Z,139.25
2023-09-17T23:53:29.513Z,138.60
2023-09-17T23:55:57.063Z,144.70
2023-09-17T23:58:24.041Z,142.63
